createdAt,value
2023-04-05T00:01:53.652Z,-1.31
2023-04-05T00:04:23.639Z,-1.38
2023-04-05T00:06:52.392Z,-1.41
2023-04-05T00:09:23.399Z,-1.46
2023-04-05T00:11:49.817Z,-1.49
2023-04-05T00:14:16.131Z,-1.50
2023-04-05T00:16:43.036Z,-1.49
2023-04-05T00:19:12.163Z,-1.55
2023-04-05T00:21:39.539Z,-1.58
2023-04-05T00:24:15.676Z,-1.63
2023-04-05T00:26:43.851Z,-1.75
2023-04-05T00:29:10.287Z,-1.82
2023-04-05T00:31:36.629Z,-1.85
2023-04-05T00:34:03.247Z,-1.80
2023-04-05T00:36:29.580Z,-1.90
2023-04-05T00:38:56.027Z,-1.89
2023-04-05T00:41:22.421Z,-1.91
2023-04-05T00:43:49.173Z,-1.88
2023-04-05T00:46:16.736Z,-1.86
2023-04-05T00:48:43.708Z,-1.69
2023-04-05T00:51:11.667Z,-1.64
2023-04-05T00:53:38.747Z,-1.74
2023-04-05T00:56:05.471Z,-1.67
2023-04-05T00:58:33.756Z,-1.54
2023-04-05T01:01:22.233Z,-1.60
2023-04-05T01:03:55.488Z,-1.76
2023-04-05T01:07:00.549Z,-1.87
2023-04-05T01:09:48.354Z,-1.87
2023-04-05T01:12:19.254Z,-1.96
2023-04-05T01:14:52.998Z,-2.07
2023-04-05T01:17:28.150Z,-2.13
2023-04-05T01:19:59.303Z,-2.13
2023-04-05T01:22:54.061Z,-2.16
2023-04-05T01:25:39.017Z,-2.15
2023-04-05T01:28:16.405Z,-2.14
2023-04-05T01:30:48.764Z,-2.22
2023-04-05T01:33:26.112Z,-2.22
2023-04-05T01:35:52.393Z,-2.20
2023-04-05T01:38:25.121Z,-2.24
2023-04-05T01:40:53.223Z,-2.24
2023-04-05T01:43:19.765Z,-2.19
2023-04-05T01:45:46.936Z,-2.22
2023-04-05T01:48:14.105Z,-2.27
2023-04-05T01:50:40.737Z,-2.31
2023-04-05T01:53:08.147Z,-2.33
2023-04-05T01:55:34.486Z,-2.22
2023-04-05T01:58:00.947Z,-2.21
2023-04-05T02:00:27.831Z,-2.24
2023-04-05T02:02:54.304Z,-2.32
2023-04-05T02:05:20.854Z,-2.33
2023-04-05T02:07:47.210Z,-2.28
2023-04-05T02:10:14.544Z,-2.32
2023-04-05T02:12:40.869Z,-2.36
2023-04-05T02:15:07.828Z,-2.39
2023-04-05T02:17:38.971Z,-2.17
2023-04-05T02:20:10.436Z,-2.22
2023-04-05T02:22:39.947Z,-2.31
2023-04-05T02:25:10.974Z,-2.34
2023-04-05T02:27:37.417Z,-2.43
2023-04-05T02:30:05.708Z,-2.37
2023-04-05T02:32:32.061Z,-2.42
2023-04-05T02:34:58.377Z,-2.48
2023-04-05T02:37:26.061Z,-2.58
2023-04-05T02:39:53.108Z,-2.64
2023-04-05T02:42:19.376Z,-2.72
2023-04-05T02:44:45.755Z,-2.63
2023-04-05T02:47:12.010Z,-2.60
2023-04-05T02:49:38.359Z,-2.64
2023-04-05T02:52:04.913Z,-2.72
2023-04-05T02:54:31.245Z,-2.77
2023-04-05T02:56:57.672Z,-2.66
2023-04-05T02:59:24.279Z,-2.64
2023-04-05T03:01:50.684Z,-2.62
2023-04-05T03:04:17.343Z,-2.66
2023-04-05T03:06:46.193Z,-2.65
2023-04-05T03:09:12.562Z,-2.59
2023-04-05T03:11:38.839Z,-2.57
2023-04-05T03:14:05.209Z,-2.57
2023-04-05T03:16:31.595Z,-2.50
2023-04-05T03:18:58.037Z,-2.55
2023-04-05T03:21:24.452Z,-2.54
2023-04-05T03:23:50.778Z,-2.56
2023-04-05T03:26:17.297Z,-2.58
2023-04-05T03:28:44.090Z,-2.59
2023-04-05T03:31:13.796Z,-2.65
2023-04-05T03:33:40.151Z,-2.66
2023-04-05T03:36:06.913Z,-2.76
2023-04-05T03:38:33.192Z,-2.72
2023-04-05T03:40:59.648Z,-2.73
2023-04-05T03:43:27.663Z,-2.78
2023-04-05T03:45:54.101Z,-2.80
2023-04-05T03:48:21.604Z,-2.79
2023-04-05T03:50:47.946Z,-2.77
2023-04-05T03:53:17.594Z,-2.66
2023-04-05T03:55:49.138Z,-2.58
2023-04-05T03:58:16.877Z,-2.55
2023-04-05T04:00:43.262Z,-2.47
2023-04-05T04:03:09.769Z,-2.44
2023-04-05T04:05:39.284Z,-2.49
2023-04-05T04:08:06.364Z,-2.57
2023-04-05T04:10:32.758Z,-2.58
2023-04-05T04:12:59.030Z,-2.53
2023-04-05T04:15:25.449Z,-2.45
2023-04-05T04:17:51.791Z,-2.33
2023-04-05T04:20:18.264Z,-2.28
2023-04-05T04:22:45.715Z,-2.34
2023-04-05T04:25:12.531Z,-2.31
2023-04-05T04:27:41.805Z,-2.33
2023-04-05T04:30:10.326Z,-2.26
2023-04-05T04:32:55.082Z,-2.22
2023-04-05T04:35:26.591Z,-2.14
2023-04-05T04:37:59.651Z,-2.10
2023-04-05T04:40:38.478Z,-1.94
2023-04-05T04:43:18.883Z,-1.83
2023-04-05T04:45:48.169Z,-1.75
2023-04-05T04:48:16.527Z,-1.75
2023-04-05T04:50:44.104Z,-1.77
2023-04-05T04:53:10.958Z,-1.73
2023-04-05T04:55:38.435Z,-1.76
2023-04-05T04:58:09.617Z,-1.76
2023-04-05T05:00:38.754Z,-1.72
2023-04-05T05:03:06.134Z,-1.74
2023-04-05T05:05:32.580Z,-1.65
2023-04-05T05:07:58.926Z,-1.67
2023-04-05T05:10:25.411Z,-1.66
2023-04-05T05:12:51.894Z,-1.56
2023-04-05T05:15:19.849Z,-1.48
2023-04-05T05:17:46.197Z,-1.47
2023-04-05T05:20:12.566Z,-1.35
2023-04-05T05:22:39.267Z,-1.25
2023-04-05T05:25:07.249Z,-1.18
2023-04-05T05:27:36.240Z,-1.13
2023-04-05T05:30:02.700Z,-1.03
2023-04-05T05:32:29.214Z,-1.03
2023-04-05T05:34:55.647Z,-0.97
2023-04-05T05:37:29.800Z,-0.86
2023-04-05T05:39:56.259Z,-0.69
2023-04-05T05:42:22.727Z,-0.53
2023-04-05T05:44:49.193Z,-0.52
2023-04-05T05:47:15.527Z,-0.38
2023-04-05T05:49:41.894Z,-0.38
2023-04-05T05:52:08.293Z,-0.47
2023-04-05T05:54:34.613Z,-0.59
2023-04-05T05:57:02.174Z,-0.62
2023-04-05T05:59:28.846Z,-0.63
2023-04-05T06:01:55.480Z,-0.64
2023-04-05T06:04:22.626Z,-0.52
2023-04-05T06:06:49.109Z,-0.43
2023-04-05T06:09:15.823Z,-0.39
2023-04-05T06:11:53.209Z,-0.36
2023-04-05T06:14:22.771Z,-0.27
2023-04-05T06:16:49.106Z,-0.03
2023-04-05T06:19:15.542Z,0.14
2023-04-05T06:21:41.829Z,0.22
2023-04-05T06:24:08.156Z,0.43
2023-04-05T06:26:34.807Z,0.52
2023-04-05T06:29:01.097Z,0.49
2023-04-05T06:31:31.774Z,0.70
2023-04-05T06:33:58.255Z,0.65
2023-04-05T06:36:27.355Z,0.73
2023-04-05T06:38:54.190Z,0.93
2023-04-05T06:41:20.702Z,1.12
2023-04-05T06:43:47.060Z,1.24
2023-04-05T06:46:14.046Z,1.35
2023-04-05T06:48:40.412Z,1.45
2023-04-05T06:51:06.836Z,1.52
2023-04-05T06:53:33.134Z,1.72
2023-04-05T06:55:59.807Z,1.87
2023-04-05T06:58:27.250Z,1.96
2023-04-05T07:00:54.220Z,1.82
2023-04-05T07:03:20.940Z,1.97
2023-04-05T07:06:06.144Z,2.19
2023-04-05T07:08:33.073Z,2.37
2023-04-05T07:10:59.544Z,2.46
2023-04-05T07:13:26.101Z,2.59
2023-04-05T07:15:59.307Z,2.77
2023-04-05T07:18:25.707Z,2.89
2023-04-05T07:20:54.002Z,2.90
2023-04-05T07:23:21.314Z,3.05
2023-04-05T07:25:48.927Z,3.16
2023-04-05T07:28:15.251Z,3.36
2023-04-05T07:30:41.896Z,3.39
2023-04-05T07:33:08.407Z,3.60
2023-04-05T07:35:34.809Z,3.70
2023-04-05T07:38:01.175Z,3.78
2023-04-05T07:40:27.846Z,3.95
2023-04-05T07:42:54.464Z,4.00
2023-04-05T07:45:21.022Z,4.06
2023-04-05T07:47:47.350Z,4.15
2023-04-05T07:50:15.170Z,4.21
2023-04-05T07:52:42.439Z,4.37
2023-04-05T07:55:09.801Z,4.43
2023-04-05T07:57:36.354Z,4.67
2023-04-05T08:00:04.525Z,4.75
2023-04-05T08:02:31.119Z,4.79
2023-04-05T08:04:57.576Z,4.88
2023-04-05T08:07:25.243Z,5.00
2023-04-05T08:09:51.722Z,5.05
2023-04-05T08:12:18.889Z,5.06
2023-04-05T08:14:45.398Z,5.13
2023-04-05T08:17:11.816Z,5.09
2023-04-05T08:19:38.111Z,5.06
2023-04-05T08:22:04.478Z,5.39
2023-04-05T08:24:30.867Z,5.45
2023-04-05T08:26:57.280Z,5.48
2023-04-05T08:29:23.595Z,5.54
2023-04-05T08:31:49.995Z,5.92
2023-04-05T08:34:16.303Z,6.14
2023-04-05T08:36:42.635Z,6.07
2023-04-05T08:39:09.038Z,6.13
2023-04-05T08:41:37.302Z,5.92
2023-04-05T08:44:05.485Z,5.84
2023-04-05T08:46:34.392Z,6.18
2023-04-05T08:49:06.627Z,6.02
2023-04-05T08:51:33.489Z,5.96
2023-04-05T08:54:00.975Z,6.01
2023-04-05T08:56:33.494Z,5.90
2023-04-05T08:59:08.283Z,6.26
2023-04-05T09:01:38.024Z,6.42
2023-04-05T09:04:13.946Z,6.23
2023-04-05T09:06:40.495Z,6.69
2023-04-05T09:09:08.349Z,6.81
2023-04-05T09:11:35.766Z,6.47
2023-04-05T09:14:05.909Z,6.53
2023-04-05T09:16:34.055Z,6.39
2023-04-05T09:19:00.768Z,6.52
2023-04-05T09:21:29.402Z,6.51
2023-04-05T09:23:56.207Z,6.58
2023-04-05T09:26:26.154Z,6.91
2023-04-05T09:28:52.514Z,6.83
2023-04-05T09:31:32.930Z,7.34
2023-04-05T09:34:03.118Z,7.05
2023-04-05T09:36:29.922Z,6.93
2023-04-05T09:39:05.424Z,6.42
2023-04-05T09:41:31.902Z,6.47
2023-04-05T09:44:00.738Z,6.45
2023-04-05T09:46:30.168Z,6.30
2023-04-05T09:48:57.124Z,6.18
2023-04-05T09:51:23.604Z,6.27
2023-04-05T09:54:04.863Z,6.36
2023-04-05T09:56:35.792Z,6.66
2023-04-05T09:59:06.657Z,6.72
2023-04-05T10:01:33.662Z,7.00
2023-04-05T10:04:00.720Z,7.15
2023-04-05T10:06:37.608Z,7.41
2023-04-05T10:09:05.197Z,7.44
2023-04-05T10:11:32.799Z,6.79
2023-04-05T10:14:01.872Z,6.77
2023-04-05T10:16:30.913Z,6.83
2023-04-05T10:18:57.323Z,6.49
2023-04-05T10:21:29.745Z,6.44
2023-04-05T10:24:24.038Z,6.23
2023-04-05T10:27:06.365Z,6.18
2023-04-05T10:29:47.637Z,6.23
2023-04-05T10:32:23.527Z,6.32
2023-04-05T10:34:58.791Z,6.18
2023-04-05T10:37:36.852Z,6.24
2023-04-05T10:40:09.122Z,6.33
2023-04-05T10:42:47.424Z,6.35
2023-04-05T10:45:17.936Z,6.60
2023-04-05T10:47:59.210Z,6.69
2023-04-05T10:50:25.770Z,6.64
2023-04-05T10:52:53.548Z,6.63
2023-04-05T10:55:21.823Z,6.85
2023-04-05T10:57:49.817Z,6.97
2023-04-05T11:00:17.776Z,7.06
2023-04-05T11:02:44.616Z,6.97
2023-04-05T11:05:32.201Z,7.19
2023-04-05T11:08:07.303Z,7.13
2023-04-05T11:10:38.738Z,7.20
2023-04-05T11:13:08.993Z,6.89
2023-04-05T11:15:36.166Z,6.96
2023-04-05T11:18:04.205Z,7.08
2023-04-05T11:20:52.844Z,7.40
2023-04-05T11:23:21.497Z,7.26
2023-04-05T11:25:54.524Z,7.86
2023-04-05T11:28:26.203Z,8.40
2023-04-05T11:30:58.682Z,8.44
2023-04-05T11:33:39.744Z,8.21
2023-04-05T11:36:06.784Z,8.55
2023-04-05T11:38:33.547Z,8.44
2023-04-05T11:41:21.259Z,8.04
2023-04-05T11:43:47.958Z,7.52
2023-04-05T11:46:18.903Z,7.65
2023-04-05T11:48:51.485Z,7.45
2023-04-05T11:51:22.936Z,7.29
2023-04-05T11:53:49.281Z,7.01
2023-04-05T11:56:16.061Z,7.06
2023-04-05T11:58:42.698Z,7.32
2023-04-05T12:01:09.340Z,7.22
2023-04-05T12:03:37.266Z,7.22
2023-04-05T12:06:05.951Z,7.51
2023-04-05T12:08:49.849Z,7.51
2023-04-05T12:11:23.242Z,7.47
2023-04-05T12:13:54.373Z,7.32
2023-04-05T12:16:20.777Z,7.39
2023-04-05T12:18:54.702Z,7.97
2023-04-05T12:21:21.876Z,7.98
2023-04-05T12:23:49.295Z,7.34
2023-04-05T12:26:16.029Z,7.62
2023-04-05T12:28:52.983Z,7.91
2023-04-05T12:31:38.879Z,8.16
2023-04-05T12:34:06.237Z,8.11
2023-04-05T12:36:32.899Z,7.67
2023-04-05T12:38:59.993Z,7.49
2023-04-05T12:41:30.705Z,7.43
2023-04-05T12:44:01.536Z,7.70
2023-04-05T12:46:45.809Z,7.85
2023-04-05T12:49:12.546Z,7.95
2023-04-05T12:51:46.410Z,8.04
2023-04-05T12:54:22.081Z,8.04
2023-04-05T12:56:54.790Z,7.71
2023-04-05T12:59:22.373Z,7.86
2023-04-05T13:01:48.900Z,7.76
2023-04-05T13:04:16.918Z,7.91
2023-04-05T13:06:44.744Z,8.17
2023-04-05T13:09:11.047Z,8.08
2023-04-05T13:11:37.376Z,8.12
2023-04-05T13:14:03.715Z,8.15
2023-04-05T13:16:30.094Z,8.10
2023-04-05T13:18:56.650Z,8.21
2023-04-05T13:21:22.993Z,8.29
2023-04-05T13:23:49.343Z,8.36
2023-04-05T13:26:15.618Z,8.36
2023-04-05T13:28:41.940Z,8.07
2023-04-05T13:31:08.364Z,8.05
2023-04-05T13:33:34.907Z,7.87
2023-04-05T13:36:01.407Z,8.12
2023-04-05T13:38:27.742Z,8.29
2023-04-05T13:40:54.160Z,8.14
2023-04-05T13:43:20.488Z,8.40
2023-04-05T13:45:46.779Z,8.62
2023-04-05T13:48:13.167Z,8.84
2023-04-05T13:50:39.730Z,8.73
2023-04-05T13:53:06.273Z,8.20
2023-04-05T13:55:32.655Z,8.19
2023-04-05T13:57:58.925Z,8.14
2023-04-05T14:00:25.484Z,8.37
2023-04-05T14:02:51.960Z,8.53
2023-04-05T14:05:18.542Z,8.33
2023-04-05T14:07:44.934Z,8.16
2023-04-05T14:10:11.618Z,8.19
2023-04-05T14:12:38.700Z,8.11
2023-04-05T14:15:05.802Z,8.36
2023-04-05T14:17:32.290Z,8.09
2023-04-05T14:19:58.945Z,7.99
2023-04-05T14:22:25.708Z,8.06
2023-04-05T14:24:52.028Z,8.20
2023-04-05T14:27:22.004Z,8.06
2023-04-05T14:29:48.602Z,8.14
2023-04-05T14:32:15.501Z,8.19
2023-04-05T14:34:42.011Z,8.22
2023-04-05T14:37:08.534Z,8.26
2023-04-05T14:39:35.019Z,8.20
2023-04-05T14:42:01.465Z,7.96
2023-04-05T14:44:27.905Z,8.07
2023-04-05T14:46:54.290Z,8.21
2023-04-05T14:49:21.457Z,8.16
2023-04-05T14:51:48.003Z,8.25
2023-04-05T14:54:14.472Z,8.21
2023-04-05T14:56:40.812Z,8.23
2023-04-05T14:59:07.312Z,8.29
2023-04-05T15:01:33.773Z,8.35
2023-04-05T15:04:00.525Z,8.17
2023-04-05T15:06:26.951Z,8.07
2023-04-05T15:08:53.338Z,8.09
2023-04-05T15:11:21.517Z,8.13
2023-04-05T15:13:47.915Z,8.42
2023-04-05T15:16:14.416Z,8.57
2023-04-05T15:18:40.874Z,8.57
2023-04-05T15:21:07.489Z,8.27
2023-04-05T15:23:34.187Z,8.18
2023-04-05T15:26:00.755Z,7.85
2023-04-05T15:28:27.064Z,7.72
2023-04-05T15:30:53.484Z,7.64
2023-04-05T15:33:19.991Z,7.43
2023-04-05T15:35:46.521Z,7.58
2023-04-05T15:38:12.963Z,7.64
2023-04-05T15:40:40.089Z,7.53
2023-04-05T15:43:06.527Z,7.42
2023-04-05T15:45:32.989Z,7.44
2023-04-05T15:47:59.607Z,7.50
2023-04-05T15:50:26.295Z,7.67
2023-04-05T15:52:52.730Z,7.52
2023-04-05T15:55:19.270Z,7.42
2023-04-05T15:57:45.917Z,7.52
2023-04-05T16:00:13.063Z,7.48
2023-04-05T16:02:39.550Z,7.46
2023-04-05T16:05:06.481Z,7.28
2023-04-05T16:07:32.934Z,7.31
2023-04-05T16:09:59.297Z,7.33
2023-04-05T16:12:25.888Z,7.28
2023-04-05T16:14:52.360Z,7.16
2023-04-05T16:17:20.440Z,7.28
2023-04-05T16:19:46.939Z,7.27
2023-04-05T16:22:13.461Z,7.20
2023-04-05T16:24:39.977Z,7.21
2023-04-05T16:27:06.662Z,7.18
2023-04-05T16:29:33.197Z,7.16
2023-04-05T16:31:59.709Z,7.14
2023-04-05T16:34:26.394Z,7.35
2023-04-05T16:36:52.820Z,7.39
2023-04-05T16:39:19.220Z,7.26
2023-04-05T16:41:45.691Z,7.17
2023-04-05T16:44:12.045Z,7.14
2023-04-05T16:46:38.493Z,7.14
2023-04-05T16:49:05.211Z,7.22
2023-04-05T16:51:34.192Z,7.17
2023-04-05T16:54:00.721Z,7.08
2023-04-05T16:56:27.083Z,6.97
2023-04-05T16:58:53.604Z,6.94
2023-04-05T17:01:20.281Z,6.87
2023-04-05T17:03:47.046Z,6.90
2023-04-05T17:06:14.676Z,6.88
2023-04-05T17:08:41.288Z,6.89
2023-04-05T17:11:07.700Z,6.90
2023-04-05T17:13:34.068Z,6.88
2023-04-05T17:16:00.778Z,6.83
2023-04-05T17:18:27.162Z,6.78
2023-04-05T17:20:53.564Z,6.74
2023-04-05T17:23:19.896Z,6.77
2023-04-05T17:25:46.289Z,6.68
2023-04-05T17:28:13.027Z,6.68
2023-04-05T17:30:39.398Z,6.67
2023-04-05T17:33:06.244Z,6.58
2023-04-05T17:35:32.750Z,6.50
2023-04-05T17:37:59.210Z,6.26
2023-04-05T17:40:25.563Z,6.30
2023-04-05T17:42:51.854Z,6.16
2023-04-05T17:45:18.311Z,6.12
2023-04-05T17:47:44.758Z,6.06
2023-04-05T17:50:11.461Z,5.93
2023-04-05T17:52:37.844Z,5.87
2023-04-05T17:55:04.831Z,5.86
2023-04-05T17:57:31.205Z,5.85
2023-04-05T17:59:59.076Z,5.81
2023-04-05T18:02:25.612Z,5.84
2023-04-05T18:04:52.053Z,5.75
2023-04-05T18:07:18.525Z,5.54
2023-04-05T18:09:44.942Z,5.32
2023-04-05T18:12:11.484Z,5.15
2023-04-05T18:14:37.994Z,4.98
2023-04-05T18:17:07.211Z,4.91
2023-04-05T18:19:33.638Z,4.84
2023-04-05T18:22:00.136Z,4.76
2023-04-05T18:24:26.578Z,4.72
2023-04-05T18:26:53.008Z,4.63
2023-04-05T18:29:19.355Z,4.56
2023-04-05T18:31:45.778Z,4.38
2023-04-05T18:34:12.144Z,4.41
2023-04-05T18:36:39.622Z,4.44
2023-04-05T18:39:06.415Z,4.42
2023-04-05T18:41:32.939Z,4.32
2023-04-05T18:43:59.587Z,4.25
2023-04-05T18:46:26.402Z,4.23
2023-04-05T18:48:54.695Z,4.20
2023-04-05T18:51:22.435Z,4.13
2023-04-05T18:53:49.043Z,4.07
2023-04-05T18:56:16.289Z,4.01
2023-04-05T18:58:42.809Z,3.89
2023-04-05T19:01:12.751Z,3.75
2023-04-05T19:03:39.730Z,3.71
2023-04-05T19:06:06.339Z,3.60
2023-04-05T19:08:33.273Z,3.59
2023-04-05T19:10:59.710Z,3.61
2023-04-05T19:13:26.126Z,3.55
2023-04-05T19:15:53.143Z,3.48
2023-04-05T19:18:25.684Z,3.35
2023-04-05T19:20:57.269Z,3.26
2023-04-05T19:23:27.714Z,3.24
2023-04-05T19:25:54.864Z,3.27
2023-04-05T19:28:21.211Z,3.25
2023-04-05T19:30:47.566Z,3.15
2023-04-05T19:33:14.156Z,3.26
2023-04-05T19:35:40.989Z,3.27
2023-04-05T19:38:07.509Z,3.22
2023-04-05T19:40:33.914Z,3.14
2023-04-05T19:43:01.885Z,2.97
2023-04-05T19:45:30.418Z,3.01
2023-04-05T19:47:58.785Z,2.94
2023-04-05T19:50:48.850Z,3.00
2023-04-05T19:53:49.578Z,2.97
2023-04-05T19:56:25.478Z,3.00
2023-04-05T19:59:01.067Z,3.04
2023-04-05T20:01:39.073Z,3.03
2023-04-05T20:04:14.462Z,3.18
2023-04-05T20:06:42.476Z,3.15
2023-04-05T20:09:11.308Z,3.09
2023-04-05T20:11:37.681Z,3.01
2023-04-05T20:14:05.327Z,2.94
2023-04-05T20:16:34.037Z,3.01
2023-04-05T20:19:06.328Z,3.01
2023-04-05T20:21:33.347Z,3.08
2023-04-05T20:24:01.159Z,3.09
2023-04-05T20:26:31.694Z,3.10
2023-04-05T20:29:00.949Z,3.06
2023-04-05T20:31:32.261Z,3.04
2023-04-05T20:34:12.877Z,3.05
2023-04-05T20:36:48.055Z,2.94
2023-04-05T20:39:14.497Z,3.01
2023-04-05T20:41:40.872Z,2.85
2023-04-05T20:44:07.582Z,2.72
2023-04-05T20:46:34.202Z,2.55
2023-04-05T20:49:01.071Z,2.46
2023-04-05T20:51:27.496Z,2.27
2023-04-05T20:53:53.929Z,2.24
2023-04-05T20:56:20.321Z,2.26
2023-04-05T20:58:46.682Z,2.22
2023-04-05T21:01:13.127Z,2.25
2023-04-05T21:03:41.680Z,2.28
2023-04-05T21:06:09.570Z,2.25
2023-04-05T21:08:38.804Z,2.00
2023-04-05T21:11:06.632Z,2.06
2023-04-05T21:13:33.512Z,2.03
2023-04-05T21:16:00.108Z,2.02
2023-04-05T21:18:26.958Z,1.96
2023-04-05T21:20:54.063Z,1.87
2023-04-05T21:23:23.506Z,1.83
2023-04-05T21:25:50.230Z,1.81
2023-04-05T21:28:16.831Z,1.91
2023-04-05T21:30:43.763Z,1.80
2023-04-05T21:33:10.773Z,1.67
2023-04-05T21:35:37.306Z,1.60
2023-04-05T21:38:03.987Z,1.60
2023-04-05T21:40:30.728Z,1.40
2023-04-05T21:42:57.441Z,1.50
2023-04-05T21:45:24.229Z,1.56
2023-04-05T21:47:50.743Z,1.46
2023-04-05T21:50:17.397Z,1.29
2023-04-05T21:52:45.248Z,1.06
2023-04-05T21:55:12.532Z,0.90
2023-04-05T21:57:38.893Z,0.99
2023-04-05T22:00:10.804Z,1.10
2023-04-05T22:02:40.729Z,1.01
2023-04-05T22:05:07.952Z,0.93
2023-04-05T22:07:35.325Z,0.97
2023-04-05T22:10:02.234Z,0.93
2023-04-05T22:12:28.666Z,0.86
2023-04-05T22:14:55.160Z,0.70
2023-04-05T22:17:21.701Z,0.56
2023-04-05T22:19:48.300Z,0.52
2023-04-05T22:22:14.976Z,0.42
2023-04-05T22:24:44.780Z,0.43
2023-04-05T22:27:11.683Z,0.60
2023-04-05T22:29:38.417Z,0.27
2023-04-05T22:32:05.065Z,0.21
2023-04-05T22:34:31.554Z,0.21
2023-04-05T22:36:58.075Z,0.14
2023-04-05T22:39:24.500Z,-0.01
2023-04-05T22:41:50.871Z,0.13
2023-04-05T22:44:17.224Z,0.09
2023-04-05T22:46:43.616Z,0.17
2023-04-05T22:49:10.087Z,0.27
2023-04-05T22:51:36.867Z,0.27
2023-04-05T22:54:03.459Z,0.17
2023-04-05T22:56:30.270Z,0.11
2023-04-05T22:58:56.691Z,0.08
2023-04-05T23:01:23.201Z,0.03
2023-04-05T23:03:49.541Z,0.03
2023-04-05T23:06:15.919Z,-0.15
2023-04-05T23:08:42.250Z,-0.22
2023-04-05T23:11:08.599Z,-0.42
2023-04-05T23:13:35.170Z,-0.34
2023-04-05T23:16:02.484Z,-0.43
2023-04-05T23:18:28.873Z,-0.37
2023-04-05T23:20:55.369Z,-0.30
2023-04-05T23:23:21.730Z,-0.27
2023-04-05T23:25:48.186Z,-0.27
2023-04-05T23:28:14.545Z,-0.28
2023-04-05T23:30:41.369Z,-0.36
2023-04-05T23:33:07.955Z,-0.46
2023-04-05T23:35:39.524Z,-0.51
2023-04-05T23:38:06.237Z,-0.47
2023-04-05T23:40:32.663Z,-0.39
2023-04-05T23:42:58.969Z,-0.34
2023-04-05T23:45:25.624Z,-0.42
2023-04-05T23:47:52.410Z,-0.47
2023-04-05T23:50:18.835Z,-0.54
2023-04-05T23:52:45.533Z,-0.52
2023-04-05T23:55:12.052Z,-0.62
2023-04-05T23:57:38.448Z,-0.73
